Time;durP1;ratioP1;P1;durP2;ratioP2;P2;SDS_P1;SDS_P2;PMS_P1;PMS_P2;Temp;Humidity;BMP_temperature;BMP_pressure;BME280_temperature;BME280_humidity;BME280_pressure;Samples;Min_cycle;Max_cycle;Signal;HPM_P1;HPM_P2
2023/05/19 00:01:36;;;;;;;21.60;13.80;;;;;;;13.58;100.00;101423.95;109449;1247;57108;-73
2023/05/19 00:04:05;;;;;;;23.50;14.20;;;;;;;13.58;100.00;101411.16;109525;1243;57780;-72
2023/05/19 00:06:35;;;;;;;26.60;15.70;;;;;;;13.59;100.00;101405.02;109456;1244;62186;-72
2023/05/19 00:09:09;;;;;;;22.00;13.40;;;;;;;13.58;100.00;101403.81;109472;1244;72148;-72
2023/05/19 00:11:39;;;;;;;22.00;15.10;;;;;;;13.57;100.00;101398.70;109473;1244;59572;-72
2023/05/19 00:14:09;;;;;;;23.10;15.20;;;;;;;13.56;100.00;101400.47;109315;1244;73129;-72
2023/05/19 00:16:38;;;;;;;23.60;14.30;;;;;;;13.53;100.00;101390.71;109508;1245;63425;-72
2023/05/19 00:19:10;;;;;;;21.30;14.40;;;;;;;13.56;100.00;101395.94;109471;1244;57670;-72
2023/05/19 00:21:39;;;;;;;20.90;14.50;;;;;;;13.52;100.00;101390.59;109573;1243;64029;-72
2023/05/19 00:24:08;;;;;;;21.50;13.90;;;;;;;13.53;100.00;101393.54;109568;1244;60913;-72
2023/05/19 00:26:37;;;;;;;23.60;14.80;;;;;;;13.54;100.00;101398.89;109557;1245;59199;-75
2023/05/19 00:29:07;;;;;;;19.00;14.10;;;;;;;13.55;100.00;101406.84;109438;1247;62337;-75
2023/05/19 00:31:35;;;;;;;19.40;13.70;;;;;;;13.52;100.00;101414.91;109477;1245;62858;-74
2023/05/19 00:34:05;;;;;;;23.10;14.60;;;;;;;13.56;100.00;101417.80;109452;1243;61685;-74
2023/05/19 00:36:34;;;;;;;22.80;14.30;;;;;;;13.56;100.00;101423.25;109332;1247;62982;-73
2023/05/19 00:39:03;;;;;;;22.00;14.80;;;;;;;13.56;100.00;101427.08;109535;1245;60885;-73
2023/05/19 00:41:32;;;;;;;23.40;14.70;;;;;;;13.58;100.00;101435.20;109520;1243;70463;-73
2023/05/19 00:44:01;;;;;;;21.90;14.40;;;;;;;13.57;100.00;101436.65;109440;1244;74202;-72
2023/05/19 00:46:29;;;;;;;23.10;14.60;;;;;;;13.62;100.00;101430.02;109529;1243;62668;-72
2023/05/19 00:48:58;;;;;;;22.20;14.20;;;;;;;13.63;100.00;101432.36;109554;1243;61682;-72
2023/05/19 00:51:28;;;;;;;23.80;15.90;;;;;;;13.63;100.00;101434.64;109508;1245;63514;-70
2023/05/19 00:53:57;;;;;;;22.80;14.50;;;;;;;13.64;100.00;101431.73;109390;1244;62127;-70
2023/05/19 00:56:26;;;;;;;23.70;15.30;;;;;;;13.69;100.00;101429.24;109399;1244;59810;-70
2023/05/19 00:58:56;;;;;;;22.20;15.40;;;;;;;13.71;100.00;101427.52;109391;1248;63389;-70
2023/05/19 01:01:25;;;;;;;21.80;14.70;;;;;;;13.75;100.00;101426.69;109480;1247;62065;-71
2023/05/19 01:03:57;;;;;;;22.30;14.10;;;;;;;13.74;100.00;101428.73;109491;1247;57699;-71
2023/05/19 01:06:28;;;;;;;21.70;14.50;;;;;;;13.71;100.00;101424.75;109519;1243;72979;-70
2023/05/19 01:08:57;;;;;;;23.30;15.40;;;;;;;13.67;100.00;101425.76;109558;1244;61969;-71
2023/05/19 01:11:26;;;;;;;24.60;14.90;;;;;;;13.69;100.00;101420.86;109493;1243;69524;-71
2023/05/19 01:13:55;;;;;;;21.70;13.70;;;;;;;13.70;100.00;101425.48;109479;1243;74135;-71
2023/05/19 01:16:39;;;;;;;22.30;12.60;;;;;;;13.70;100.00;101426.70;109395;1244;61795;-71
2023/05/19 01:19:45;;;;;;;22.40;14.30;;;;;;;13.61;100.00;101437.90;109429;1243;61534;-71
2023/05/19 01:22:53;;;;;;;22.60;14.10;;;;;;;13.58;100.00;101430.63;109429;1244;73150;-71
2023/05/19 01:25:41;;;;;;;21.80;14.50;;;;;;;13.61;100.00;101430.22;109461;1246;62091;-72
2023/05/19 01:28:22;;;;;;;24.80;15.00;;;;;;;13.66;100.00;101426.37;109315;1244;69631;-70
2023/05/19 01:30:54;;;;;;;20.70;12.80;;;;;;;13.64;100.00;101426.83;109260;1244;74404;-69
2023/05/19 01:33:24;;;;;;;23.90;15.10;;;;;;;13.65;100.00;101426.59;109308;1246;57236;-70
2023/05/19 01:35:55;;;;;;;23.00;15.30;;;;;;;13.64;100.00;101436.45;109196;1248;57714;-70
2023/05/19 01:38:25;;;;;;;22.20;15.50;;;;;;;13.64;100.00;101438.08;109123;1249;62191;-71
2023/05/19 01:40:55;;;;;;;22.20;14.50;;;;;;;13.62;100.00;101438.92;109259;1243;72222;-71
2023/05/19 01:43:26;;;;;;;18.00;11.70;;;;;;;13.55;100.00;101436.80;109086;1244;70300;-70
2023/05/19 01:45:57;;;;;;;19.80;14.20;;;;;;;13.56;100.00;101448.80;109173;1244;73550;-71
2023/05/19 01:48:28;;;;;;;22.70;14.70;;;;;;;13.58;100.00;101454.05;109130;1245;63376;-70
2023/05/19 01:50:58;;;;;;;21.90;15.30;;;;;;;13.57;100.00;101460.42;109397;1243;61038;-71
2023/05/19 01:53:27;;;;;;;24.90;15.00;;;;;;;13.58;100.00;101460.35;109314;1248;62615;-71
2023/05/19 01:55:56;;;;;;;24.90;15.30;;;;;;;13.57;100.00;101456.57;109418;1244;72135;-70
2023/05/19 01:58:47;;;;;;;21.80;14.40;;;;;;;13.57;100.00;101455.17;109369;1248;60393;-71
2023/05/19 02:01:51;;;;;;;27.00;15.60;;;;;;;13.53;100.00;101453.69;109414;1244;73885;-71
2023/05/19 02:04:40;;;;;;;25.30;16.40;;;;;;;13.46;100.00;101447.42;109422;1247;57209;-71
2023/05/19 02:07:45;;;;;;;28.90;16.50;;;;;;;13.42;100.00;101436.49;109372;1248;61289;-71
2023/05/19 02:10:21;;;;;;;28.40;18.30;;;;;;;13.45;100.00;101444.45;109341;1244;72444;-71
2023/05/19 02:12:52;;;;;;;23.70;15.20;;;;;;;13.44;100.00;101448.39;109236;1248;62098;-71
2023/05/19 02:15:29;;;;;;;24.50;16.00;;;;;;;13.43;100.00;101457.39;109450;1244;60112;-71
2023/05/19 02:18:03;;;;;;;30.00;17.30;;;;;;;13.41;100.00;101455.65;109373;1247;63249;-71
2023/05/19 02:20:32;;;;;;;26.80;17.50;;;;;;;13.40;100.00;101449.22;109386;1247;62383;-70
2023/05/19 02:23:01;;;;;;;27.00;17.00;;;;;;;13.36;100.00;101452.48;109468;1245;57681;-70
2023/05/19 02:25:30;;;;;;;29.70;17.80;;;;;;;13.37;100.00;101454.74;109346;1243;71458;-71
2023/05/19 02:28:00;;;;;;;26.40;15.80;;;;;;;13.36;100.00;101452.52;109264;1244;71940;-71
2023/05/19 02:30:30;;;;;;;24.40;16.80;;;;;;;13.38;100.00;101457.43;109275;1244;70869;-70
2023/05/19 02:33:00;;;;;;;25.70;17.10;;;;;;;13.34;100.00;101455.64;109273;1244;73546;-71
2023/05/19 02:35:29;;;;;;;28.40;16.90;;;;;;;13.40;100.00;101469.54;109244;1247;57222;-70
2023/05/19 02:37:58;;;;;;;31.30;17.30;;;;;;;13.41;100.00;101470.50;109337;1244;57741;-72
2023/05/19 02:40:27;;;;;;;25.00;15.40;;;;;;;13.36;100.00;101475.38;109048;1250;63933;-72
2023/05/19 02:42:56;;;;;;;25.70;14.30;;;;;;;13.37;100.00;101469.36;109374;1245;61615;-72
2023/05/19 02:45:27;;;;;;;25.60;15.60;;;;;;;13.40;100.00;101469.53;109339;1248;59263;-72
2023/05/19 02:47:58;;;;;;;26.20;16.70;;;;;;;13.35;100.00;101472.19;109458;1244;73824;-72
2023/05/19 02:50:27;;;;;;;29.90;17.50;;;;;;;13.33;100.00;101480.53;109450;1245;57600;-72
2023/05/19 02:52:56;;;;;;;33.10;17.30;;;;;;;13.37;100.00;101485.35;109360;1244;60519;-72
2023/05/19 02:55:25;;;;;;;28.30;16.30;;;;;;;13.35;100.00;101499.09;109362;1244;73244;-72
2023/05/19 02:57:54;;;;;;;32.00;17.00;;;;;;;13.36;100.00;101501.27;109402;1247;62036;-72
2023/05/19 03:00:23;;;;;;;30.80;17.80;;;;;;;13.35;100.00;101498.75;109373;1248;60038;-72
2023/05/19 03:02:52;;;;;;;26.20;14.60;;;;;;;13.37;100.00;101505.23;109362;1244;73645;-71
2023/05/19 03:05:21;;;;;;;33.60;16.80;;;;;;;13.33;100.00;101512.17;109380;1245;63299;-71
2023/05/19 03:07:50;;;;;;;30.90;16.90;;;;;;;13.33;100.00;101514.15;109423;1244;57376;-71
2023/05/19 03:10:19;;;;;;;27.10;16.60;;;;;;;13.34;100.00;101518.61;109490;1245;62184;-71
2023/05/19 03:12:48;;;;;;;28.50;16.50;;;;;;;13.35;100.00;101512.92;109418;1244;60969;-72
2023/05/19 03:15:18;;;;;;;28.30;17.30;;;;;;;13.41;100.00;101513.91;109495;1244;59191;-71
2023/05/19 03:17:46;;;;;;;25.40;16.40;;;;;;;13.44;100.00;101515.42;109384;1244;73798;-71
2023/05/19 03:20:15;;;;;;;24.90;14.00;;;;;;;13.47;100.00;101518.52;109384;1245;62588;-72
2023/05/19 03:22:44;;;;;;;23.70;15.40;;;;;;;13.48;100.00;101523.14;109438;1244;57706;-74
2023/05/19 03:25:13;;;;;;;34.30;17.20;;;;;;;13.48;100.00;101519.87;109293;1244;62172;-75
2023/05/19 03:27:42;;;;;;;27.70;16.20;;;;;;;13.43;100.00;101518.51;109295;1244;61843;-76
2023/05/19 03:30:12;;;;;;;26.60;16.10;;;;;;;13.41;100.00;101518.95;109563;1244;69695;-76
2023/05/19 03:32:52;;;;;;;33.10;17.90;;;;;;;13.43;100.00;101512.52;109412;1244;63888;-75
2023/05/19 03:35:21;;;;;;;23.40;14.60;;;;;;;13.49;100.00;101525.58;109430;1247;62251;-73
2023/05/19 03:37:50;;;;;;;28.70;17.30;;;;;;;13.47;100.00;101519.40;109442;1244;59907;-75
2023/05/19 03:40:18;;;;;;;31.30;17.10;;;;;;;13.53;100.00;101517.76;109451;1244;73277;-75
2023/05/19 03:42:48;;;;;;;31.40;17.10;;;;;;;13.54;100.00;101519.77;109529;1243;61770;-75
2023/05/19 03:45:17;;;;;;;29.20;16.70;;;;;;;13.52;100.00;101515.60;109420;1244;70505;-76
2023/05/19 03:47:46;;;;;;;30.20;17.20;;;;;;;13.52;100.00;101530.23;109503;1244;63771;-75
2023/05/19 03:50:32;;;;;;;30.60;17.80;;;;;;;13.46;100.00;101532.94;109511;1244;61138;-75
2023/05/19 03:53:12;;;;;;;27.40;17.10;;;;;;;13.49;100.00;101531.88;109503;1243;57745;-74
2023/05/19 03:55:43;;;;;;;31.60;17.50;;;;;;;13.48;100.00;101533.32;109485;1243;62928;-75
2023/05/19 03:58:13;;;;;;;33.20;16.30;;;;;;;13.47;100.00;101538.10;109353;1244;61659;-76
2023/05/19 04:00:42;;;;;;;31.30;18.20;;;;;;;13.44;100.00;101544.98;109340;1243;61675;-77
2023/05/19 04:03:10;;;;;;;29.60;17.00;;;;;;;13.48;100.00;101545.20;109368;1243;73744;-78
2023/05/19 04:05:41;;;;;;;29.60;16.40;;;;;;;13.53;100.00;101552.73;109327;1245;63357;-77
2023/05/19 04:08:09;;;;;;;32.10;17.90;;;;;;;13.57;100.00;101558.92;109337;1244;61090;-77
2023/05/19 04:10:38;;;;;;;31.00;16.50;;;;;;;13.56;100.00;101566.20;109200;1243;62551;-80
2023/05/19 04:13:07;;;;;;;30.00;16.10;;;;;;;13.50;100.00;101566.96;109463;1244;71528;-78
2023/05/19 04:15:36;;;;;;;34.60;17.80;;;;;;;13.55;100.00;101556.45;109468;1244;60312;-77
2023/05/19 04:18:05;;;;;;;29.10;17.00;;;;;;;13.59;100.00;101551.97;109480;1243;62494;-76
2023/05/19 04:20:34;;;;;;;29.80;16.30;;;;;;;13.63;100.00;101553.78;109423;1245;57782;-82
2023/05/19 04:23:03;;;;;;;26.50;16.20;;;;;;;13.73;100.00;101553.94;109325;1244;60551;-83
2023/05/19 04:25:34;;;;;;;30.40;17.20;;;;;;;13.64;100.00;101562.29;109227;1244;63668;-79
2023/05/19 04:28:03;;;;;;;29.80;17.00;;;;;;;13.74;100.00;101556.33;109253;1247;61059;-82
2023/05/19 04:30:33;;;;;;;29.60;17.10;;;;;;;13.70;100.00;101564.47;109262;1244;60010;-83
2023/05/19 04:33:03;;;;;;;32.20;18.30;;;;;;;13.78;100.00;101558.84;109401;1244;63316;-82
2023/05/19 04:35:32;;;;;;;28.00;16.70;;;;;;;13.81;100.00;101550.71;109391;1248;57245;-79
2023/05/19 04:38:01;;;;;;;30.50;16.20;;;;;;;13.76;100.00;101546.54;109298;1246;60432;-76
2023/05/19 04:40:32;;;;;;;31.40;16.40;;;;;;;13.76;100.00;101553.56;109359;1246;73375;-80
2023/05/19 04:43:01;;;;;;;26.60;15.80;;;;;;;13.85;100.00;101556.80;109393;1246;61278;-80
2023/05/19 04:45:31;;;;;;;29.40;17.00;;;;;;;13.89;100.00;101561.38;109383;1246;59075;-79
2023/05/19 04:48:01;;;;;;;30.80;16.20;;;;;;;13.86;100.00;101566.48;109348;1246;64333;-79
2023/05/19 04:50:31;;;;;;;26.30;15.60;;;;;;;13.83;100.00;101561.61;109420;1247;57775;-78
2023/05/19 04:53:00;;;;;;;30.60;17.50;;;;;;;13.86;100.00;101555.13;109456;1247;60421;-78
2023/05/19 04:55:30;;;;;;;32.00;16.60;;;;;;;13.85;100.00;101560.40;109413;1244;72719;-77
2023/05/19 04:57:59;;;;;;;30.70;16.20;;;;;;;13.77;100.00;101567.99;109427;1244;62089;-78
2023/05/19 05:00:28;;;;;;;27.40;15.80;;;;;;;13.80;100.00;101575.48;109502;1244;60384;-78
2023/05/19 05:03:03;;;;;;;33.80;17.00;;;;;;;13.83;100.00;101578.63;109457;1244;72978;-74
2023/05/19 05:05:34;;;;;;;31.40;16.40;;;;;;;13.84;100.00;101566.65;109361;1247;63394;-71
2023/05/19 05:08:03;;;;;;;27.70;15.00;;;;;;;13.87;100.00;101568.17;109369;1247;61550;-71
2023/05/19 05:10:35;;;;;;;;;;;;;;;13.86;100.00;101557.93;109424;1244;74146;-71
2023/05/19 05:13:05;;;;;;;28.20;16.20;;;;;;;13.89;100.00;101560.28;109342;1247;61864;-80
2023/05/19 05:15:35;;;;;;;26.00;14.20;;;;;;;13.94;100.00;101553.48;109338;1247;71130;-70
2023/05/19 05:18:04;;;;;;;34.10;16.30;;;;;;;14.10;100.00;101551.23;109325;1247;74408;-70
2023/05/19 05:20:33;;;;;;;28.90;15.70;;;;;;;14.18;100.00;101554.11;109467;1248;57662;-70
2023/05/19 05:23:03;;;;;;;27.50;15.90;;;;;;;14.20;100.00;101563.79;109314;1244;57790;-69
2023/05/19 05:25:32;;;;;;;32.40;16.60;;;;;;;14.21;100.00;101580.23;109420;1245;72815;-70
2023/05/19 05:28:03;;;;;;;25.40;15.00;;;;;;;14.18;100.00;101578.70;109461;1246;62468;-70
2023/05/19 05:30:33;;;;;;;27.10;14.60;;;;;;;14.30;100.00;101568.46;109412;1245;69587;-70
2023/05/19 05:33:03;;;;;;;30.50;15.80;;;;;;;14.24;100.00;101557.57;109453;1246;73901;-69
2023/05/19 05:35:34;;;;;;;25.40;15.00;;;;;;;14.24;100.00;101567.18;109421;1248;57659;-70
2023/05/19 05:38:05;;;;;;;27.40;16.70;;;;;;;14.31;100.00;101570.13;109251;1247;57924;-79
2023/05/19 05:40:34;;;;;;;25.40;16.20;;;;;;;14.38;100.00;101573.84;109303;1244;72768;-71
2023/05/19 05:43:03;;;;;;;29.40;16.00;;;;;;;14.54;100.00;101575.83;109310;1247;73028;-72
2023/05/19 05:45:34;;;;;;;24.10;16.30;;;;;;;14.64;100.00;101575.11;109327;1247;60299;-70
2023/05/19 05:48:04;;;;;;;26.30;16.40;;;;;;;14.87;100.00;101577.21;109298;1244;72874;-71
2023/05/19 05:50:34;;;;;;;24.30;15.20;;;;;;;15.04;100.00;101581.79;109339;1247;62423;-71
2023/05/19 05:53:06;;;;;;;23.90;14.60;;;;;;;15.14;100.00;101580.53;109312;1245;59275;-71
2023/05/19 05:55:35;;;;;;;22.70;14.70;;;;;;;15.16;100.00;101584.11;109292;1245;73077;-72
2023/05/19 05:58:05;;;;;;;23.00;14.90;;;;;;;15.05;100.00;101584.73;109300;1247;72487;-70
2023/05/19 06:00:35;;;;;;;26.50;15.90;;;;;;;15.02;100.00;101590.73;109334;1244;71750;-70
2023/05/19 06:03:04;;;;;;;26.50;14.60;;;;;;;14.93;100.00;101599.38;109311;1246;75142;-71
2023/05/19 06:05:34;;;;;;;27.20;15.60;;;;;;;14.98;100.00;101594.73;109380;1244;62752;-71
2023/05/19 06:08:03;;;;;;;24.70;14.80;;;;;;;14.99;100.00;101590.77;109388;1244;57719;-71
2023/05/19 06:10:34;;;;;;;24.20;14.20;;;;;;;15.09;100.00;101589.70;109362;1245;73593;-69
2023/05/19 06:13:05;;;;;;;;;;;;;;;15.27;100.00;101593.58;109319;1245;62737;-70
2023/05/19 06:15:38;;;;;;;22.70;14.20;;;;;;;15.39;100.00;101597.55;109439;1244;70537;-70
2023/05/19 06:18:14;;;;;;;23.10;14.30;;;;;;;15.22;100.00;101596.09;109459;1247;73272;-79
2023/05/19 06:20:43;;;;;;;24.30;14.70;;;;;;;15.05;100.00;101593.54;109467;1247;60118;-72
2023/05/19 06:23:12;;;;;;;23.80;13.90;;;;;;;15.24;100.00;101592.75;109367;1244;61612;-71
2023/05/19 06:25:41;;;;;;;28.60;15.00;;;;;;;15.39;100.00;101595.26;109351;1246;74359;-70
2023/05/19 06:28:10;;;;;;;21.90;13.80;;;;;;;15.42;100.00;101596.05;109199;1247;62008;-70
2023/05/19 06:30:39;;;;;;;21.50;14.00;;;;;;;15.41;100.00;101592.08;109349;1248;58992;-70
2023/05/19 06:33:26;;;;;;;23.60;14.80;;;;;;;15.54;100.00;101591.60;109329;1247;63931;-70
2023/05/19 06:35:57;;;;;;;21.20;12.60;;;;;;;15.63;100.00;101590.74;109277;1247;61996;-71
2023/05/19 06:38:25;;;;;;;20.00;11.00;;;;;;;15.76;100.00;101590.42;109398;1247;60800;-69
2023/05/19 06:40:55;;;;;;;23.70;14.30;;;;;;;15.72;100.00;101595.27;109410;1244;63483;-71
2023/05/19 06:43:24;;;;;;;23.80;14.00;;;;;;;15.60;100.00;101593.76;109338;1244;60959;-71
2023/05/19 06:45:58;;;;;;;21.00;13.70;;;;;;;15.59;99.99;101599.33;109320;1244;59012;-70
2023/05/19 06:48:27;;;;;;;19.60;13.40;;;;;;;15.56;100.00;101592.69;109277;1248;72775;-68
2023/05/19 06:50:56;;;;;;;18.50;12.30;;;;;;;15.63;100.00;101593.91;109285;1248;63477;-69
2023/05/19 06:53:25;;;;;;;20.20;12.30;;;;;;;15.69;98.86;101590.61;109297;1247;61661;-71
2023/05/19 06:55:54;;;;;;;17.90;11.90;;;;;;;15.75;97.51;101582.38;109123;1247;73518;-70
2023/05/19 06:58:30;;;;;;;18.00;11.60;;;;;;;15.78;97.03;101587.04;109316;1247;62014;-70
2023/05/19 07:00:59;;;;;;;15.20;11.60;;;;;;;15.88;96.38;101590.15;109274;1247;60012;-70
2023/05/19 07:03:31;;;;;;;22.60;12.30;;;;;;;15.97;95.92;101591.21;109316;1248;63130;-70
2023/05/19 07:06:00;;;;;;;17.50;11.40;;;;;;;16.16;94.07;101584.48;109147;1247;57655;-71
2023/05/19 07:08:29;;;;;;;19.70;11.80;;;;;;;16.27;92.49;101582.41;109177;1251;57768;-70
2023/05/19 07:11:00;;;;;;;16.80;11.20;;;;;;;16.29;91.47;101592.02;109243;1247;71728;-70
2023/05/19 07:13:29;;;;;;;17.00;10.90;;;;;;;16.22;91.81;101589.27;109254;1248;71878;-70
2023/05/19 07:15:57;;;;;;;17.60;11.20;;;;;;;16.15;92.72;101594.95;109295;1247;70567;-69
2023/05/19 07:18:30;;;;;;;14.50;10.20;;;;;;;16.39;91.07;101591.09;109233;1250;63630;-69
2023/05/19 07:20:59;;;;;;;17.40;10.30;;;;;;;16.62;89.45;101594.89;109298;1248;57715;-69
2023/05/19 07:23:28;;;;;;;13.80;10.50;;;;;;;16.84;87.90;101589.95;109251;1250;57780;-69
2023/05/19 07:25:57;;;;;;;20.50;11.20;;;;;;;16.86;86.76;101589.08;109285;1249;62175;-69
2023/05/19 07:28:26;;;;;;;19.00;10.70;;;;;;;17.07;85.83;101592.70;109272;1248;61751;-69
2023/05/19 07:30:55;;;;;;;19.30;10.70;;;;;;;17.11;85.37;101598.14;109178;1247;69500;-69
2023/05/19 07:33:25;;;;;;;14.60;10.00;;;;;;;17.28;84.16;101600.06;109128;1247;74302;-69
2023/05/19 07:35:54;;;;;;;16.50;10.00;;;;;;;17.28;82.79;101588.06;109136;1249;57746;-68
2023/05/19 07:38:23;;;;;;;15.50;10.60;;;;;;;17.26;82.92;101584.58;108865;1247;351674;-69
2023/05/19 07:40:52;;;;;;;14.60;10.60;;;;;;;17.31;82.60;101582.05;109127;1249;63632;-69
2023/05/19 07:43:21;;;;;;;13.90;9.90;;;;;;;17.18;83.80;101577.52;109112;1247;71495;-70
2023/05/19 07:45:50;;;;;;;13.80;9.60;;;;;;;17.59;81.54;101571.96;109082;1247;70839;-69
2023/05/19 07:48:21;;;;;;;15.90;9.40;;;;;;;17.66;80.76;101573.45;109106;1247;73285;-69
2023/05/19 07:50:51;;;;;;;12.20;8.60;;;;;;;17.80;79.70;101576.65;108997;1251;62877;-70
2023/05/19 07:53:21;;;;;;;13.60;8.60;;;;;;;17.83;78.71;101587.16;109197;1247;60900;-69
2023/05/19 07:55:50;;;;;;;15.00;9.20;;;;;;;17.68;78.53;101587.23;109230;1247;73168;-69
2023/05/19 07:58:19;;;;;;;12.90;9.00;;;;;;;17.45;79.95;101584.83;109303;1247;72765;-69
2023/05/19 08:00:48;;;;;;;13.90;9.90;;;;;;;17.64;78.92;101587.53;109313;1247;59749;-69
2023/05/19 08:03:17;;;;;;;11.80;8.00;;;;;;;17.53;79.40;101580.26;109322;1247;73930;-70
2023/05/19 08:05:46;;;;;;;13.40;9.50;;;;;;;17.57;79.68;101571.44;109315;1247;57145;-69
2023/05/19 08:08:18;;;;;;;12.60;7.70;;;;;;;17.69;79.64;101579.16;109342;1247;60919;-69
2023/05/19 08:10:47;;;;;;;12.50;9.20;;;;;;;17.82;78.08;101582.29;109281;1251;63438;-70
2023/05/19 08:13:16;;;;;;;15.90;10.00;;;;;;;17.82;77.06;101580.54;109333;1247;62553;-68
2023/05/19 08:15:45;;;;;;;13.90;8.90;;;;;;;17.81;77.17;101571.83;109176;1252;59827;-69
2023/05/19 08:18:14;;;;;;;15.20;9.40;;;;;;;17.69;77.70;101575.84;109306;1247;63291;-68
2023/05/19 08:20:45;;;;;;;12.30;8.80;;;;;;;17.83;76.94;101574.48;109347;1248;57639;-69
2023/05/19 08:23:14;;;;;;;13.50;9.50;;;;;;;17.87;76.40;101572.52;109356;1245;61338;-70
2023/05/19 08:25:43;;;;;;;15.40;8.30;;;;;;;17.94;76.26;101571.00;109365;1244;73994;-69
2023/05/19 08:28:12;;;;;;;10.10;6.90;;;;;;;17.96;76.07;101571.70;109446;1248;62037;-69
2023/05/19 08:30:41;;;;;;;12.60;8.80;;;;;;;17.99;75.95;101568.77;109459;1248;59963;-68
2023/05/19 08:33:10;;;;;;;12.60;9.10;;;;;;;18.10;75.49;101563.09;109321;1250;62506;-67
2023/05/19 08:35:39;;;;;;;14.00;8.50;;;;;;;18.18;75.14;101560.39;109420;1248;57707;-69
2023/05/19 08:38:08;;;;;;;12.40;8.80;;;;;;;18.28;74.66;101567.96;109430;1247;58891;-69
2023/05/19 08:40:40;;;;;;;12.90;8.80;;;;;;;18.28;75.41;101562.08;109489;1245;72842;-69
2023/05/19 08:43:10;;;;;;;11.50;8.30;;;;;;;18.45;74.76;101555.91;109505;1245;63534;-69
2023/05/19 08:45:42;;;;;;;12.00;8.40;;;;;;;18.71;73.76;101562.17;109399;1247;70851;-69
2023/05/19 08:48:13;;;;;;;14.90;8.70;;;;;;;18.77;73.23;101554.95;109338;1250;63800;-69
2023/05/19 08:50:51;;;;;;;11.30;7.70;;;;;;;18.87;72.52;101557.84;109404;1248;57549;-68
2023/05/19 08:53:31;;;;;;;11.80;8.10;;;;;;;19.03;71.52;101558.49;109354;1251;57198;-69
2023/05/19 08:56:15;;;;;;;13.00;7.90;;;;;;;19.09;70.92;101562.69;109462;1247;72777;-68
2023/05/19 08:58:44;;;;;;;11.50;7.60;;;;;;;19.12;71.01;101555.17;109456;1248;62072;-68
2023/05/19 09:01:17;;;;;;;10.20;7.60;;;;;;;19.27;70.53;101555.61;109379;1248;60618;-68
2023/05/19 09:03:48;;;;;;;12.10;7.30;;;;;;;19.30;70.35;101551.79;109244;1251;72720;-67
2023/05/19 09:06:17;;;;;;;12.00;7.90;;;;;;;19.45;69.86;101545.04;109260;1250;61809;-67
2023/05/19 09:08:47;;;;;;;13.10;8.00;;;;;;;19.46;70.18;101550.11;109401;1247;60782;-68
2023/05/19 09:11:15;;;;;;;9.20;7.30;;;;;;;19.60;69.95;101543.33;109429;1248;74129;-68
2023/05/19 09:13:44;;;;;;;9.20;6.90;;;;;;;19.75;69.32;101543.07;109403;1248;61466;-68
2023/05/19 09:16:13;;;;;;;10.00;6.90;;;;;;;20.01;68.66;101536.79;109448;1245;59205;-68
2023/05/19 09:18:56;;;;;;;9.50;7.50;;;;;;;20.23;67.82;101534.92;109298;1251;63341;-70
2023/05/19 09:21:31;;;;;;;8.50;7.20;;;;;;;20.33;67.32;101539.46;109200;1250;57516;-69
2023/05/19 09:24:05;;;;;;;9.40;7.30;;;;;;;20.38;67.35;101537.63;108990;1254;57269;-70
2023/05/19 09:26:41;;;;;;;8.90;7.00;;;;;;;20.60;66.10;101536.33;109142;1247;73454;-70
2023/05/19 09:29:15;;;;;;;9.60;7.00;;;;;;;20.57;65.87;101539.84;109301;1249;61992;-70
2023/05/19 09:31:51;;;;;;;11.20;6.50;;;;;;;20.60;65.59;101542.40;109263;1249;60022;-70
2023/05/19 09:34:23;;;;;;;8.80;6.70;;;;;;;20.73;65.48;101540.13;109365;1248;62541;-70
2023/05/19 09:36:53;;;;;;;9.80;6.70;;;;;;;20.92;64.92;101542.85;109266;1249;57228;-69
2023/05/19 09:39:24;;;;;;;10.20;6.60;;;;;;;21.04;64.74;101534.09;109341;1251;60437;-69
2023/05/19 09:41:54;;;;;;;11.10;6.60;;;;;;;21.17;64.07;101526.70;109310;1247;74019;-69
2023/05/19 09:44:30;;;;;;;9.80;6.30;;;;;;;21.30;63.76;101523.80;109365;1248;72558;-68
2023/05/19 09:46:58;;;;;;;9.50;5.50;;;;;;;21.13;64.38;101521.30;109404;1247;71463;-70
2023/05/19 09:49:29;;;;;;;12.60;6.70;;;;;;;21.34;63.53;101512.88;109423;1247;73861;-70
2023/05/19 09:52:02;;;;;;;8.90;6.40;;;;;;;21.20;64.31;101512.23;109355;1249;61613;-68
2023/05/19 09:54:33;;;;;;;8.50;6.20;;;;;;;21.36;63.83;101512.58;109457;1248;57710;-69
2023/05/19 09:57:04;;;;;;;8.40;6.00;;;;;;;21.54;63.05;101511.00;109351;1247;73517;-69
2023/05/19 09:59:37;;;;;;;7.40;5.60;;;;;;;21.62;62.54;101509.25;109397;1248;62023;-69
2023/05/19 10:02:14;;;;;;;8.20;6.10;;;;;;;21.49;63.54;101510.98;109423;1245;61034;-69
2023/05/19 10:04:45;;;;;;;7.40;6.00;;;;;;;21.67;62.96;101511.33;109309;1248;63329;-71
2023/05/19 10:07:14;;;;;;;9.50;6.20;;;;;;;21.68;62.23;101496.43;109329;1248;60566;-69
2023/05/19 10:09:44;;;;;;;11.20;6.30;;;;;;;21.83;61.97;101497.61;109413;1248;57710;-69
2023/05/19 10:12:13;;;;;;;9.60;6.30;;;;;;;21.95;61.75;101498.54;109326;1248;71806;-69
2023/05/19 10:14:42;;;;;;;10.20;6.50;;;;;;;22.06;60.74;101494.60;109375;1245;72821;-69
2023/05/19 10:17:13;;;;;;;7.10;6.00;;;;;;;22.16;60.35;101496.84;109383;1248;59778;-70
2023/05/19 10:19:43;;;;;;;11.80;6.00;;;;;;;22.40;59.42;101490.86;109205;1247;73333;-69
2023/05/19 10:22:12;;;;;;;11.90;6.50;;;;;;;22.40;59.83;101496.50;109077;1248;57756;-69
2023/05/19 10:24:41;;;;;;;8.60;6.40;;;;;;;22.29;59.13;101499.91;109057;1247;57626;-70
2023/05/19 10:27:13;;;;;;;10.90;6.40;;;;;;;22.68;58.57;101494.94;109153;1247;72730;-69
2023/05/19 10:29:48;;;;;;;8.80;6.20;;;;;;;22.78;58.55;101495.02;109117;1247;62016;-70
2023/05/19 10:32:25;;;;;;;9.00;5.90;;;;;;;23.04;57.65;101491.48;109132;1248;70497;-70
2023/05/19 10:35:12;;;;;;;9.70;6.30;;;;;;;23.08;57.16;101485.15;109155;1248;64010;-70
2023/05/19 10:37:45;;;;;;;10.80;6.30;;;;;;;23.04;56.54;101491.04;109146;1248;61153;-70
2023/05/19 10:40:28;;;;;;;12.30;6.10;;;;;;;23.02;56.65;101482.09;109107;1248;57389;-70
2023/05/19 10:43:10;;;;;;;10.50;6.80;;;;;;;23.15;56.76;101477.83;109138;1248;62210;-69
2023/05/19 10:45:50;;;;;;;8.30;5.60;;;;;;;23.37;55.97;101472.51;109105;1248;60982;-70
2023/05/19 10:48:21;;;;;;;6.80;5.90;;;;;;;23.33;56.22;101465.64;109195;1247;60152;-70
2023/05/19 10:50:54;;;;;;;9.40;6.30;;;;;;;23.32;56.38;101464.70;109124;1245;73093;-69
2023/05/19 10:53:33;;;;;;;14.20;6.60;;;;;;;23.39;56.18;101459.80;109061;1251;62061;-69
2023/05/19 10:56:03;;;;;;;7.20;5.90;;;;;;;23.64;55.60;101459.98;109241;1248;57692;-69
2023/05/19 10:58:43;;;;;;;9.40;6.10;;;;;;;23.82;55.29;101455.78;109385;1245;74135;-69
2023/05/19 11:01:14;;;;;;;7.40;5.40;;;;;;;23.84;55.02;101459.79;109430;1245;62621;-69
2023/05/19 11:03:56;;;;;;;7.90;6.40;;;;;;;23.88;54.81;101466.20;109443;1244;60600;-70
2023/05/19 11:06:36;;;;;;;7.60;5.60;;;;;;;23.87;55.40;101456.93;109303;1250;73839;-70
2023/05/19 11:09:14;;;;;;;6.90;6.10;;;;;;;24.09;54.70;101460.50;109327;1245;57151;-69
2023/05/19 11:11:51;;;;;;;7.00;5.20;;;;;;;23.94;55.05;101461.61;109256;1245;61175;-70
2023/05/19 11:14:26;;;;;;;9.60;5.70;;;;;;;24.23;54.37;101471.80;109259;1245;64209;-68
2023/05/19 11:16:59;;;;;;;8.20;6.40;;;;;;;24.21;54.32;101469.02;109243;1245;71573;-69
2023/05/19 11:19:30;;;;;;;8.10;5.40;;;;;;;24.25;54.21;101469.27;109267;1244;59716;-70
2023/05/19 11:22:10;;;;;;;7.00;5.80;;;;;;;24.39;54.06;101463.02;109222;1244;73868;-69